Time;durP1;ratioP1;P1;durP2;ratioP2;P2;SDS_P1;SDS_P2;PMS_P1;PMS_P2;Temp;Humidity;BMP_temperature;BMP_pressure;BME280_temperature;BME280_humidity;BME280_pressure;Samples;Min_cycle;Max_cycle;Signal;HPM_P1;HPM_P2
2023/12/11 00:01:07;;;;;;;23.40;4.63;;;11.30;99.90;;;;;;5067711;28;20329;-66
2023/12/11 00:03:34;;;;;;;27.70;5.15;;;11.30;99.90;;;;;;5067071;28;20467;-67
2023/12/11 00:06:01;;;;;;;21.30;3.25;;;11.30;99.90;;;;;;5068185;28;20048;-67
2023/12/11 00:08:28;;;;;;;21.42;5.55;;;11.30;99.90;;;;;;5068407;28;20041;-67
2023/12/11 00:10:55;;;;;;;28.50;4.57;;;11.30;99.90;;;;;;5067156;28;20125;-67
2023/12/11 00:13:22;;;;;;;34.55;5.15;;;11.30;99.90;;;;;;5066170;28;20052;-67
2023/12/11 00:15:49;;;;;;;15.85;3.50;;;11.10;99.90;;;;;;5067277;28;20049;-67
2023/12/11 00:18:15;;;;;;;26.40;3.72;;;11.00;99.90;;;;;;5067465;28;20556;-68
2023/12/11 00:20:43;;;;;;;26.10;5.47;;;10.90;99.90;;;;;;5066912;28;20048;-66
2023/12/11 00:23:09;;;;;;;21.98;4.03;;;10.80;99.90;;;;;;5067157;28;20049;-67
2023/12/11 00:25:37;;;;;;;26.73;4.28;;;10.70;99.90;;;;;;5067469;28;20040;-66
2023/12/11 00:28:04;;;;;;;24.75;3.67;;;10.70;99.90;;;;;;5076642;28;20048;-66
2023/12/11 00:30:30;;;;;;;23.88;4.15;;;10.70;99.90;;;;;;5069063;28;20113;-66
2023/12/11 00:32:57;;;;;;;30.08;6.20;;;10.70;99.90;;;;;;5068886;28;20052;-66
2023/12/11 00:35:24;;;;;;;23.15;3.42;;;10.70;99.90;;;;;;5069127;28;20124;-66
2023/12/11 00:37:51;;;;;;;20.17;3.92;;;10.70;99.90;;;;;;5084230;28;20515;-67
2023/12/11 00:40:18;;;;;;;25.27;4.00;;;10.70;99.90;;;;;;5068631;28;20336;-66
2023/12/11 00:42:45;;;;;;;21.48;3.20;;;10.70;99.90;;;;;;5050631;28;20135;-66
2023/12/11 00:45:13;;;;;;;16.05;3.40;;;10.80;99.90;;;;;;5068549;28;20059;-66
2023/12/11 00:47:40;;;;;;;25.35;4.35;;;10.70;99.90;;;;;;5050871;28;20416;-65
2023/12/11 00:50:07;;;;;;;24.05;3.45;;;10.80;99.90;;;;;;5069104;28;20059;-65
2023/12/11 00:52:35;;;;;;;19.15;4.15;;;10.80;99.90;;;;;;5064825;28;20099;-66
2023/12/11 00:55:02;;;;;;;19.20;4.13;;;10.80;99.90;;;;;;5067468;28;20106;-67
2023/12/11 00:57:30;;;;;;;21.33;3.20;;;10.80;99.90;;;;;;5067903;28;20094;-66
2023/12/11 00:59:57;;;;;;;16.63;2.97;;;10.80;99.90;;;;;;5068309;28;20084;-66
2023/12/11 01:02:24;;;;;;;22.50;5.25;;;10.90;99.90;;;;;;5067999;28;20055;-68
2023/12/11 01:04:50;;;;;;;20.20;3.83;;;10.90;99.90;;;;;;5067682;28;20133;-66
2023/12/11 01:07:17;;;;;;;15.05;3.42;;;10.90;99.90;;;;;;5068103;28;20684;-66
2023/12/11 01:09:44;;;;;;;21.27;4.97;;;10.90;99.90;;;;;;5066749;28;20469;-66
2023/12/11 01:12:11;;;;;;;16.38;4.10;;;10.90;99.90;;;;;;5066884;28;20075;-66
2023/12/11 01:14:38;;;;;;;19.73;3.70;;;10.90;99.90;;;;;;5068048;28;20485;-66
2023/12/11 01:17:05;;;;;;;28.98;5.50;;;11.00;99.90;;;;;;5067925;28;20052;-66
2023/12/11 01:19:52;;;;;;;22.23;3.28;;;11.00;99.90;;;;;;5071667;28;20047;-66
2023/12/11 01:22:19;;;;;;;16.52;3.22;;;11.00;99.90;;;;;;5067782;28;20123;-66
2023/12/11 01:24:46;;;;;;;15.88;3.60;;;11.00;99.90;;;;;;5067800;28;20048;-65
2023/12/11 01:27:13;;;;;;;20.50;3.30;;;11.00;99.90;;;;;;5067852;28;20052;-65
2023/12/11 01:29:39;;;;;;;18.58;3.17;;;11.00;99.90;;;;;;5067952;28;20117;-65
2023/12/11 01:32:06;;;;;;;20.02;3.80;;;11.00;99.90;;;;;;5067591;28;20110;-65
2023/12/11 01:34:33;;;;;;;18.48;3.40;;;11.00;99.90;;;;;;5067329;28;20048;-66
2023/12/11 01:37:00;;;;;;;21.35;3.85;;;11.00;99.90;;;;;;5082849;28;20040;-65
2023/12/11 01:39:27;;;;;;;23.38;4.53;;;11.00;99.90;;;;;;4713898;28;10000153;-65
2023/12/11 01:41:54;;;;;;;17.48;2.90;;;10.90;99.90;;;;;;5064934;28;20056;-66
2023/12/11 01:44:20;;;;;;;20.15;3.85;;;10.90;99.90;;;;;;5067522;28;20040;-67
2023/12/11 01:46:47;;;;;;;15.40;3.35;;;11.00;99.90;;;;;;5049790;28;20052;-66
2023/12/11 01:49:14;;;;;;;21.95;4.03;;;10.90;99.90;;;;;;5067258;28;20055;-66
2023/12/11 01:51:42;;;;;;;17.92;3.30;;;10.90;99.90;;;;;;5067960;28;20045;-65
2023/12/11 01:54:09;;;;;;;28.08;3.53;;;11.00;99.90;;;;;;5049200;28;20467;-67
2023/12/11 01:56:35;;;;;;;23.33;2.95;;;11.00;99.90;;;;;;5067739;28;20044;-66
2023/12/11 01:59:02;;;;;;;14.80;2.95;;;10.90;99.90;;;;;;5048919;28;20057;-67
2023/12/11 02:01:29;;;;;;;11.77;2.40;;;11.00;99.90;;;;;;5067485;28;20454;-66
2023/12/11 02:03:56;;;;;;;21.75;3.15;;;10.90;99.90;;;;;;5066913;28;20423;-67
2023/12/11 02:06:23;;;;;;;19.60;4.25;;;10.90;99.90;;;;;;5067194;28;20036;-66
2023/12/11 02:08:50;;;;;;;17.55;3.53;;;10.90;99.90;;;;;;5065237;28;20052;-66
2023/12/11 02:11:16;;;;;;;28.15;3.28;;;10.90;99.90;;;;;;5060888;28;20396;-66
2023/12/11 02:13:43;;;;;;;20.02;3.40;;;11.00;99.90;;;;;;5063530;28;20048;-65
2023/12/11 02:16:15;;;;;;;17.33;3.28;;;11.00;99.90;;;;;;5066641;28;20454;-67
2023/12/11 02:18:43;;;;;;;20.90;3.05;;;11.00;99.90;;;;;;5068544;28;20048;-66
2023/12/11 02:21:13;;;;;;;9.98;2.25;;;11.00;99.90;;;;;;5070938;28;20041;-66
2023/12/11 02:24:01;;;;;;;20.05;4.80;;;11.00;99.90;;;;;;5066725;28;20491;-66
2023/12/11 02:26:29;;;;;;;13.82;2.20;;;11.00;99.90;;;;;;5046594;28;20048;-66
2023/12/11 02:28:56;;;;;;;17.73;3.40;;;11.00;99.90;;;;;;5079311;28;20063;-65
2023/12/11 02:31:22;;;;;;;13.75;2.58;;;11.00;99.90;;;;;;5064338;28;20067;-65
2023/12/11 02:33:49;;;;;;;16.33;4.32;;;10.90;99.90;;;;;;5066985;28;20105;-65
2023/12/11 02:36:16;;;;;;;22.60;4.05;;;10.90;99.90;;;;;;5066726;28;20052;-65
2023/12/11 02:38:43;;;;;;;13.45;2.83;;;10.80;99.90;;;;;;5060391;28;20060;-66
2023/12/11 02:41:10;;;;;;;11.57;2.90;;;10.80;99.90;;;;;;5066073;28;20078;-66
2023/12/11 02:43:37;;;;;;;14.98;3.33;;;10.80;99.90;;;;;;5048817;28;20051;-66
2023/12/11 02:46:04;;;;;;;23.45;2.65;;;10.80;99.90;;;;;;5065452;28;20110;-65
2023/12/11 02:48:31;;;;;;;12.93;2.55;;;10.70;99.90;;;;;;5060941;28;20052;-67
2023/12/11 02:50:58;;;;;;;18.52;3.53;;;10.70;99.90;;;;;;5066240;28;20075;-67
2023/12/11 02:53:25;;;;;;;19.60;3.40;;;10.70;99.90;;;;;;5066531;28;20495;-67
2023/12/11 02:55:52;;;;;;;15.65;3.40;;;10.70;99.90;;;;;;5066438;28;20110;-67
2023/12/11 02:58:18;;;;;;;15.68;2.60;;;10.70;99.90;;;;;;5066639;28;20098;-66
2023/12/11 03:00:45;;;;;;;24.25;3.83;;;10.60;99.90;;;;;;5064554;28;20449;-67
2023/12/11 03:03:12;;;;;;;14.93;2.47;;;10.60;99.90;;;;;;5069995;28;20044;-67
2023/12/11 03:05:39;;;;;;;13.68;2.20;;;10.70;99.90;;;;;;5071753;28;20561;-67
2023/12/11 03:08:06;;;;;;;23.48;2.78;;;10.70;99.90;;;;;;5048343;28;20049;-68
2023/12/11 03:10:33;;;;;;;15.77;3.05;;;10.60;99.90;;;;;;5085075;28;20040;-67
2023/12/11 03:12:59;;;;;;;30.83;4.25;;;10.60;99.90;;;;;;5071816;28;20051;-66
2023/12/11 03:15:26;;;;;;;15.48;2.35;;;10.60;99.90;;;;;;5071666;28;20535;-67
2023/12/11 03:17:53;;;;;;;17.27;2.53;;;10.50;99.90;;;;;;5069692;28;20057;-66
2023/12/11 03:20:20;;;;;;;9.02;2.83;;;10.50;99.90;;;;;;5068476;28;20052;-67
2023/12/11 03:22:47;;;;;;;14.65;2.88;;;10.40;99.90;;;;;;5070316;28;20279;-66
2023/12/11 03:25:14;;;;;;;23.33;3.53;;;10.40;99.90;;;;;;5067229;28;20072;-67
2023/12/11 03:27:41;;;;;;;17.58;3.58;;;10.40;99.90;;;;;;5068924;28;20049;-66
2023/12/11 03:30:08;;;;;;;13.85;3.22;;;10.40;99.90;;;;;;5059566;28;20114;-66
2023/12/11 03:32:35;;;;;;;13.75;2.38;;;10.40;99.90;;;;;;5066241;28;20557;-67
2023/12/11 03:35:02;;;;;;;21.45;2.88;;;10.40;99.90;;;;;;5085216;28;20060;-67
2023/12/11 03:37:29;;;;;;;23.50;4.32;;;10.40;99.90;;;;;;5068872;28;20110;-67
2023/12/11 03:39:56;;;;;;;22.98;3.28;;;10.30;99.90;;;;;;5066454;28;20058;-66
2023/12/11 03:42:23;;;;;;;14.15;3.05;;;10.30;99.90;;;;;;5084366;28;20582;-67
2023/12/11 03:44:50;;;;;;;12.50;2.92;;;10.30;99.90;;;;;;5068962;28;20048;-67
2023/12/11 03:47:17;;;;;;;21.58;4.40;;;10.20;99.90;;;;;;5069706;28;20040;-66
2023/12/11 03:49:44;;;;;;;16.58;3.00;;;10.20;99.90;;;;;;5068021;28;20048;-67
2023/12/11 03:52:11;;;;;;;22.38;3.60;;;10.20;99.90;;;;;;5051799;28;20044;-66
2023/12/11 03:54:38;;;;;;;16.80;2.83;;;10.20;99.90;;;;;;5068584;28;20044;-66
2023/12/11 03:57:05;;;;;;;22.65;4.53;;;10.20;99.90;;;;;;5069109;28;20041;-66
2023/12/11 03:59:32;;;;;;;27.50;3.75;;;10.10;99.90;;;;;;5065715;28;20125;-66
2023/12/11 04:01:59;;;;;;;18.67;4.32;;;10.20;99.90;;;;;;5067685;28;20044;-66
2023/12/11 04:04:26;;;;;;;19.33;3.55;;;10.10;99.90;;;;;;5069286;28;20044;-66
2023/12/11 04:06:53;;;;;;;20.92;3.80;;;10.10;99.90;;;;;;5061615;28;20051;-67
2023/12/11 04:09:20;;;;;;;18.88;3.20;;;10.10;99.90;;;;;;5065549;28;20067;-67
2023/12/11 04:11:47;;;;;;;16.95;3.60;;;10.10;99.90;;;;;;5073411;28;20098;-66
2023/12/11 04:14:14;;;;;;;19.63;4.18;;;10.10;99.90;;;;;;5068774;28;20044;-66
2023/12/11 04:16:44;;;;;;;16.52;3.28;;;10.10;99.90;;;;;;5069872;28;20415;-67
2023/12/11 04:19:11;;;;;;;20.52;3.67;;;10.10;99.90;;;;;;5069353;28;20041;-65
2023/12/11 04:21:39;;;;;;;14.73;3.67;;;10.10;99.90;;;;;;5069407;28;20080;-66
2023/12/11 04:24:06;;;;;;;19.75;4.28;;;10.10;99.90;;;;;;5068663;28;20316;-66
2023/12/11 04:26:32;;;;;;;24.63;3.30;;;10.10;99.90;;;;;;5069617;28;20052;-66
2023/12/11 04:28:59;;;;;;;11.70;2.95;;;10.10;99.90;;;;;;5069734;28;20305;-66
2023/12/11 04:31:26;;;;;;;30.23;3.97;;;10.10;99.90;;;;;;5067143;28;20098;-66
2023/12/11 04:33:53;;;;;;;20.98;4.07;;;10.00;99.90;;;;;;5068774;28;20056;-66
2023/12/11 04:36:20;;;;;;;14.18;3.53;;;10.00;99.90;;;;;;5068651;28;20385;-68
2023/12/11 04:38:47;;;;;;;19.80;3.40;;;10.00;99.90;;;;;;5067478;28;20094;-66
2023/12/11 04:41:14;;;;;;;33.72;4.30;;;10.00;99.90;;;;;;5068939;28;20102;-66
2023/12/11 04:43:41;;;;;;;24.98;3.30;;;10.00;99.90;;;;;;5068732;28;20059;-65
2023/12/11 04:46:08;;;;;;;22.15;3.72;;;10.00;99.90;;;;;;5068648;28;20106;-66
2023/12/11 04:48:34;;;;;;;15.48;2.60;;;10.00;99.90;;;;;;5067505;28;20052;-65
2023/12/11 04:51:03;;;;;;;15.82;2.70;;;10.00;99.90;;;;;;5066679;28;20044;-65
2023/12/11 04:53:29;;;;;;;23.27;4.15;;;10.10;99.90;;;;;;5050870;28;20045;-66
2023/12/11 04:55:56;;;;;;;13.88;2.60;;;10.10;99.90;;;;;;5068218;28;20045;-65
2023/12/11 04:58:23;;;;;;;16.25;2.60;;;10.20;99.90;;;;;;5069667;28;20056;-65
2023/12/11 05:00:50;;;;;;;21.38;3.97;;;10.10;99.90;;;;;;5066326;28;20075;-67
2023/12/11 05:03:17;;;;;;;14.00;3.42;;;10.20;99.90;;;;;;5068530;28;20462;-66
2023/12/11 05:05:44;;;;;;;22.08;3.58;;;10.10;99.90;;;;;;5050350;28;20703;-66
2023/12/11 05:08:11;;;;;;;21.08;2.78;;;10.20;99.90;;;;;;5068841;28;20193;-66
2023/12/11 05:10:38;;;;;;;18.55;2.92;;;10.20;99.90;;;;;;5068792;28;20049;-66
2023/12/11 05:13:05;;;;;;;17.02;3.60;;;10.20;99.90;;;;;;5069713;28;20041;-66
2023/12/11 05:15:32;;;;;;;18.17;3.63;;;10.30;99.90;;;;;;5088162;28;20131;-66
2023/12/11 05:17:58;;;;;;;17.52;3.42;;;10.30;99.90;;;;;;5068319;28;20048;-66
2023/12/11 05:20:25;;;;;;;16.15;2.75;;;10.40;99.90;;;;;;5068177;28;20052;-66
2023/12/11 05:22:52;;;;;;;14.77;3.28;;;10.50;99.90;;;;;;5068397;28;20044;-66
2023/12/11 05:25:19;;;;;;;22.63;3.75;;;10.50;99.90;;;;;;5067218;28;20053;-66
2023/12/11 05:27:46;;;;;;;19.95;3.17;;;10.40;99.90;;;;;;5067739;28;20093;-66
2023/12/11 05:30:13;;;;;;;10.77;2.63;;;10.40;99.90;;;;;;5068000;28;20470;-66
2023/12/11 05:32:41;;;;;;;21.20;2.45;;;10.40;99.90;;;;;;5068268;28;20368;-66
2023/12/11 05:35:08;;;;;;;19.55;3.08;;;10.40;99.90;;;;;;5067627;28;20048;-67
2023/12/11 05:37:35;;;;;;;15.65;2.78;;;10.50;99.90;;;;;;5068081;28;20041;-66
2023/12/11 05:40:03;;;;;;;21.40;3.13;;;10.50;99.90;;;;;;5067860;28;20044;-66
2023/12/11 05:42:49;;;;;;;16.63;3.42;;;10.50;99.90;;;;;;5067192;28;20048;-66
2023/12/11 05:45:16;;;;;;;16.20;2.58;;;10.60;99.90;;;;;;5067799;28;20052;-67
2023/12/11 05:47:43;;;;;;;18.25;3.72;;;10.50;99.90;;;;;;5067346;28;20101;-66
2023/12/11 05:50:11;;;;;;;16.95;2.50;;;10.50;99.90;;;;;;5067948;28;20451;-66
2023/12/11 05:52:38;;;;;;;13.88;3.33;;;10.60;99.90;;;;;;5067610;28;20518;-67
2023/12/11 05:55:05;;;;;;;11.25;2.08;;;10.60;99.90;;;;;;5071459;28;20048;-66
2023/12/11 05:57:32;;;;;;;17.05;3.10;;;10.50;99.90;;;;;;5067294;28;20094;-67
2023/12/11 05:59:59;;;;;;;23.73;2.83;;;10.60;99.90;;;;;;5067426;28;20591;-66
2023/12/11 06:02:26;;;;;;;16.88;2.83;;;10.60;99.90;;;;;;5067711;28;20068;-67
2023/12/11 06:04:52;;;;;;;19.73;3.17;;;10.60;99.90;;;;;;5067406;28;20439;-66
2023/12/11 06:07:19;;;;;;;14.43;2.58;;;10.60;99.90;;;;;;5067017;28;20098;-66
2023/12/11 06:09:46;;;;;;;13.20;2.55;;;10.50;99.90;;;;;;5064544;28;20495;-66
2023/12/11 06:12:13;;;;;;;21.88;3.30;;;10.50;99.90;;;;;;5066964;28;20059;-66
2023/12/11 06:14:40;;;;;;;12.93;2.78;;;10.50;99.90;;;;;;5066674;28;20049;-66
2023/12/11 06:17:11;;;;;;;21.33;3.10;;;10.60;99.90;;;;;;5067037;28;20045;-66
2023/12/11 06:19:44;;;;;;;17.48;4.53;;;10.50;99.90;;;;;;5066918;28;20052;-67
2023/12/11 06:22:11;;;;;;;18.40;2.63;;;10.50;99.90;;;;;;5067160;28;20483;-67
2023/12/11 06:24:42;;;;;;;14.02;2.95;;;10.50;99.90;;;;;;5047516;28;20439;-66
2023/12/11 06:27:09;;;;;;;14.68;2.63;;;10.50;99.90;;;;;;5060337;28;20059;-67
2023/12/11 06:29:36;;;;;;;18.50;3.60;;;10.50;99.90;;;;;;5062484;28;20049;-66
2023/12/11 06:32:03;;;;;;;24.75;3.30;;;10.50;99.90;;;;;;5058499;28;20045;-66
2023/12/11 06:34:30;;;;;;;10.38;2.15;;;10.40;99.90;;;;;;5066505;28;20089;-66
2023/12/11 06:36:57;;;;;;;17.42;3.83;;;10.40;99.90;;;;;;5066874;28;20403;-67
2023/12/11 06:39:26;;;;;;;19.92;3.58;;;10.40;99.90;;;;;;5063986;28;20135;-66
2023/12/11 06:41:53;;;;;;;16.13;3.15;;;10.30;99.90;;;;;;5061983;28;20053;-67
2023/12/11 06:44:22;;;;;;;19.05;2.88;;;10.20;99.90;;;;;;4717257;28;10000212;-67
2023/12/11 06:46:48;;;;;;;13.20;2.88;;;10.20;99.90;;;;;;5061080;28;20040;-66
2023/12/11 06:49:15;;;;;;;15.75;2.65;;;10.10;99.90;;;;;;5066398;28;20098;-67
2023/12/11 06:51:42;;;;;;;12.52;3.20;;;10.10;99.90;;;;;;5069063;28;20044;-66
2023/12/11 06:54:10;;;;;;;21.08;2.83;;;10.10;99.90;;;;;;5067865;28;20055;-66
2023/12/11 06:56:37;;;;;;;19.98;3.30;;;10.10;99.90;;;;;;5066323;28;20044;-66
2023/12/11 06:59:04;;;;;;;25.65;4.32;;;10.00;99.90;;;;;;5067235;28;20109;-67
2023/12/11 07:01:33;;;;;;;14.55;3.03;;;10.00;99.90;;;;;;5067968;28;20094;-66
2023/12/11 07:04:00;;;;;;;17.45;3.70;;;10.00;99.90;;;;;;5067111;28;20048;-67
2023/12/11 07:06:28;;;;;;;17.63;2.90;;;9.90;99.90;;;;;;5071125;28;20119;-66
2023/12/11 07:08:55;;;;;;;13.18;2.45;;;9.80;99.90;;;;;;5068830;28;20446;-65
2023/12/11 07:11:22;;;;;;;20.63;2.55;;;9.80;99.90;;;;;;5068562;28;20059;-66
2023/12/11 07:13:49;;;;;;;15.48;2.33;;;9.80;99.90;;;;;;5071110;28;20513;-66
2023/12/11 07:16:16;;;;;;;21.30;3.42;;;9.80;99.90;;;;;;5060693;28;20048;-65
2023/12/11 07:18:44;;;;;;;15.75;3.55;;;9.70;99.90;;;;;;5070283;28;20046;-67
2023/12/11 07:21:11;;;;;;;19.35;3.75;;;9.70;99.90;;;;;;5071745;28;20051;-67
2023/12/11 07:23:38;;;;;;;14.90;2.50;;;9.70;99.90;;;;;;5071061;28;20695;-67
2023/12/11 07:26:09;;;;;;;16.55;2.30;;;9.70;99.90;;;;;;5070589;28;20463;-67
2023/12/11 07:28:36;;;;;;;16.13;3.17;;;9.60;99.90;;;;;;5071381;28;20048;-66
2023/12/11 07:31:05;;;;;;;19.80;2.55;;;9.60;99.90;;;;;;5071296;28;20522;-66
2023/12/11 07:33:32;;;;;;;15.77;2.95;;;9.60;99.90;;;;;;5070950;28;20572;-64
2023/12/11 07:35:59;;;;;;;15.98;2.83;;;9.50;99.90;;;;;;5053713;28;20053;-64
2023/12/11 07:38:26;;;;;;;21.15;3.35;;;9.50;99.90;;;;;;5063846;28;20052;-64
2023/12/11 07:40:55;;;;;;;22.73;4.60;;;9.40;99.90;;;;;;5066209;28;20064;-64
2023/12/11 07:43:21;;;;;;;13.60;2.72;;;9.40;99.90;;;;;;5069231;28;20483;-63
2023/12/11 07:45:49;;;;;;;15.45;2.25;;;9.40;99.90;;;;;;5067116;28;20044;-63
2023/12/11 07:48:16;;;;;;;13.57;2.00;;;9.30;99.90;;;;;;5064237;28;20068;-62
2023/12/11 07:50:43;;;;;;;13.27;3.00;;;9.40;99.90;;;;;;5064238;28;20435;-64
2023/12/11 07:53:10;;;;;;;13.52;2.97;;;9.40;99.90;;;;;;5071322;28;20173;-62
2023/12/11 07:55:36;;;;;;;16.95;2.50;;;9.40;99.90;;;;;;5071615;28;20080;-63
2023/12/11 07:58:03;;;;;;;16.52;2.78;;;9.50;99.90;;;;;;5070350;28;20475;-63
2023/12/11 08:00:31;;;;;;;15.50;2.60;;;9.60;99.90;;;;;;5071026;28;20068;-63
2023/12/11 08:02:58;;;;;;;15.60;2.80;;;9.60;99.90;;;;;;5053320;28;20041;-63
2023/12/11 08:05:25;;;;;;;12.70;2.45;;;9.70;99.90;;;;;;5066010;28;20363;-64
2023/12/11 08:07:52;;;;;;;11.27;2.45;;;9.70;99.90;;;;;;5070582;28;20041;-64
2023/12/11 08:10:19;;;;;;;13.13;2.65;;;9.70;99.90;;;;;;5067796;28;20455;-60
2023/12/11 08:12:51;;;;;;;9.63;2.00;;;9.80;99.90;;;;;;5072966;28;20467;-61
2023/12/11 08:15:18;;;;;;;12.70;2.97;;;9.80;99.90;;;;;;5079985;28;20113;-61
2023/12/11 08:17:45;;;;;;;15.18;2.22;;;9.80;99.90;;;;;;5073045;28;20612;-63
2023/12/11 08:20:16;;;;;;;10.00;1.98;;;9.80;99.90;;;;;;5070784;28;20110;-68
2023/12/11 08:22:44;;;;;;;18.90;3.10;;;9.80;99.90;;;;;;5072139;28;20048;-62
2023/12/11 08:25:12;;;;;;;16.55;2.47;;;9.80;99.90;;;;;;5070848;28;20074;-63
2023/12/11 08:27:40;;;;;;;14.35;2.58;;;9.80;99.90;;;;;;5072898;28;20116;-64
2023/12/11 08:30:07;;;;;;;13.25;3.17;;;9.80;99.90;;;;;;5062958;28;20044;-63
2023/12/11 08:32:37;;;;;;;11.48;1.90;;;9.80;99.90;;;;;;5046074;28;20517;-63
2023/12/11 08:35:04;;;;;;;11.27;2.28;;;9.90;99.90;;;;;;5072191;28;20487;-63
2023/12/11 08:37:31;;;;;;;12.95;2.03;;;9.90;99.90;;;;;;5064738;28;20067;-62
2023/12/11 08:39:59;;;;;;;14.50;3.03;;;9.90;99.90;;;;;;5064309;28;20058;-62
2023/12/11 08:42:26;;;;;;;7.85;1.48;;;9.90;99.90;;;;;;5069669;28;20044;-63
2023/12/11 08:44:53;;;;;;;12.93;2.17;;;9.90;99.90;;;;;;5069276;28;20052;-62
2023/12/11 08:47:20;;;;;;;13.15;2.92;;;9.80;99.90;;;;;;5076421;28;20063;-62
2023/12/11 08:49:47;;;;;;;12.50;2.17;;;9.80;99.90;;;;;;5060038;28;20131;-62
2023/12/11 08:52:14;;;;;;;6.35;1.30;;;9.80;99.90;;;;;;5071679;28;20060;-62
2023/12/11 08:54:41;;;;;;;12.27;1.65;;;9.70;99.90;;;;;;5068765;28;20051;-63
2023/12/11 08:57:08;;;;;;;8.90;2.88;;;9.70;99.90;;;;;;5067732;28;20048;-63
2023/12/11 08:59:37;;;;;;;5.78;1.75;;;9.60;99.90;;;;;;5071541;28;20083;-62
2023/12/11 09:02:04;;;;;;;14.20;1.77;;;9.60;99.90;;;;;;5072527;28;20044;-61
2023/12/11 09:04:32;;;;;;;13.98;2.00;;;9.50;99.90;;;;;;5071298;28;20060;-62
2023/12/11 09:06:59;;;;;;;11.63;1.95;;;9.60;99.90;;;;;;5065795;28;20051;-63
2023/12/11 09:09:26;;;;;;;12.45;2.13;;;9.60;99.90;;;;;;5063495;28;20044;-63
2023/12/11 09:11:53;;;;;;;10.82;2.10;;;9.60;99.90;;;;;;4712040;28;9999657;-64
2023/12/11 09:14:20;;;;;;;8.65;1.65;;;9.60;99.90;;;;;;5062833;28;20445;-62
2023/12/11 09:16:47;;;;;;;11.20;1.80;;;9.70;99.90;;;;;;5049928;28;20107;-62
2023/12/11 09:19:14;;;;;;;10.88;1.65;;;9.70;99.90;;;;;;5075234;28;20064;-62
2023/12/11 09:21:41;;;;;;;13.30;1.63;;;9.70;99.90;;;;;;5072742;28;20056;-62
2023/12/11 09:24:09;;;;;;;9.50;1.88;;;9.70;99.90;;;;;;5069410;28;20085;-64
2023/12/11 09:26:36;;;;;;;8.68;1.70;;;9.80;99.90;;;;;;5066494;28;20049;-64
2023/12/11 09:29:03;;;;;;;10.32;1.63;;;9.80;99.90;;;;;;5063387;28;20048;-62
2023/12/11 09:31:30;;;;;;;5.72;1.58;;;9.90;99.90;;;;;;5062246;28;20503;-62
2023/12/11 09:33:57;;;;;;;12.35;1.80;;;9.90;99.90;;;;;;5065523;28;20044;-64
2023/12/11 09:36:24;;;;;;;9.00;2.53;;;10.00;99.90;;;;;;5072741;28;20045;-63
2023/12/11 09:38:51;;;;;;;7.65;2.22;;;10.00;99.90;;;;;;5068812;28;20192;-63
2023/12/11 09:41:18;;;;;;;6.50;1.77;;;10.00;99.90;;;;;;5059426;28;20053;-63
2023/12/11 09:43:45;;;;;;;9.32;1.95;;;10.00;99.90;;;;;;5076335;28;20488;-63
2023/12/11 09:46:12;;;;;;;8.85;1.90;;;10.10;99.90;;;;;;5055544;28;20549;-63
2023/12/11 09:48:39;;;;;;;9.65;2.00;;;10.10;99.90;;;;;;5043968;28;20053;-63
2023/12/11 09:51:06;;;;;;;12.35;3.35;;;10.10;99.90;;;;;;5045137;28;20044;-64
2023/12/11 09:53:33;;;;;;;10.98;2.88;;;10.20;99.90;;;;;;5068921;28;20050;-60
2023/12/11 09:56:00;;;;;;;12.27;1.40;;;10.20;99.90;;;;;;5055148;28;20284;-63
2023/12/11 09:58:27;;;;;;;7.60;1.85;;;10.20;99.90;;;;;;5048947;28;20461;-63
2023/12/11 10:01:00;;;;;;;10.38;1.95;;;10.30;99.90;;;;;;5031794;28;20052;-63
2023/12/11 10:03:28;;;;;;;7.75;2.15;;;10.30;99.90;;;;;;5053045;28;20043;-64
2023/12/11 10:05:59;;;;;;;15.00;2.33;;;10.30;99.90;;;;;;5073909;28;20453;-64
2023/12/11 10:08:26;;;;;;;16.05;2.05;;;10.30;99.90;;;;;;5053214;28;20052;-64
2023/12/11 10:11:22;;;;;;;11.98;1.80;;;10.40;99.90;;;;;;5051618;28;20126;-64
2023/12/11 10:13:49;;;;;;;8.43;2.65;;;10.30;99.90;;;;;;5060160;28;20380;-64
2023/12/11 10:16:46;;;;;;;13.48;2.83;;;10.40;99.90;;;;;;5069382;28;20067;-64
2023/12/11 10:19:13;;;;;;;8.70;1.75;;;10.40;99.90;;;;;;5055571;28;20048;-65
2023/12/11 10:21:40;;;;;;;8.57;1.63;;;10.50;99.90;;;;;;5032917;28;20073;-64
2023/12/11 10:24:13;;;;;;;11.63;1.58;;;10.50;99.90;;;;;;5069446;28;20072;-64
2023/12/11 10:26:55;;;;;;;10.45;1.88;;;10.50;99.90;;;;;;5071693;28;20088;-64
2023/12/11 10:29:23;;;;;;;9.52;1.80;;;10.50;99.90;;;;;;5067379;28;20044;-64
2023/12/11 10:31:51;;;;;;;11.13;2.03;;;10.50;99.90;;;;;;5048892;28;20506;-64
2023/12/11 10:34:17;;;;;;;10.45;2.08;;;10.50;99.90;;;;;;5070294;28;20505;-63
2023/12/11 10:36:49;;;;;;;9.32;1.90;;;10.60;99.90;;;;;;5066955;28;20098;-63
2023/12/11 10:39:16;;;;;;;6.28;1.75;;;10.60;99.90;;;;;;5070689;28;20060;-64
2023/12/11 10:41:45;;;;;;;9.50;1.67;;;10.60;99.90;;;;;;5066119;28;20059;-64
2023/12/11 10:44:25;;;;;;;11.73;2.33;;;10.60;99.90;;;;;;5058107;28;20489;-63
2023/12/11 10:47:12;;;;;;;7.47;1.17;;;10.70;99.90;;;;;;5072811;28;20056;-64
2023/12/11 10:49:39;;;;;;;10.70;1.63;;;10.60;99.90;;;;;;5065588;28;20048;-64
2023/12/11 10:52:06;;;;;;;7.32;1.83;;;10.50;99.90;;;;;;5065446;28;20475;-63
2023/12/11 10:54:42;;;;;;;7.25;1.48;;;10.50;99.90;;;;;;5058377;28;20044;-65
2023/12/11 10:57:16;;;;;;;9.35;1.48;;;10.50;99.90;;;;;;5064056;28;20064;-63
2023/12/11 10:59:44;;;;;;;9.07;1.60;;;10.40;99.90;;;;;;5065431;28;20057;-64
2023/12/11 11:02:13;;;;;;;8.73;1.50;;;10.40;99.90;;;;;;5069049;28;20048;-65
2023/12/11 11:04:41;;;;;;;13.15;1.95;;;10.40;99.90;;;;;;5031054;28;20045;-65
2023/12/11 11:07:28;;;;;;;10.25;1.88;;;10.50;99.90;;;;;;5045778;28;20045;-65
2023/12/11 11:10:23;;;;;;;6.35;1.10;;;10.60;99.90;;;;;;5047150;28;20495;-65
2023/12/11 11:13:11;;;;;;;11.50;1.38;;;10.60;99.90;;;;;;5065887;28;20086;-64
2023/12/11 11:15:38;;;;;;;5.38;2.10;;;10.70;99.90;;;;;;5040815;28;20087;-64
2023/12/11 11:18:05;;;;;;;6.47;1.10;;;10.70;99.90;;;;;;5048496;28;20087;-65
2023/12/11 11:20:33;;;;;;;6.82;1.52;;;10.70;99.90;;;;;;5065267;28;20511;-64
2023/12/11 11:23:16;;;;;;;6.32;1.75;;;10.70;99.90;;;;;;5064082;28;20052;-64
2023/12/11 11:25:50;;;;;;;8.93;1.00;;;10.70;99.90;;;;;;5060340;28;20112;-65
2023/12/11 11:28:38;;;;;;;7.35;1.15;;;10.70;99.90;;;;;;5048098;28;20053;-65
2023/12/11 11:31:06;;;;;;;4.38;1.05;;;10.70;99.90;;;;;;5056028;28;20094;-65
2023/12/11 11:33:50;;;;;;;5.70;1.08;;;10.60;99.90;;;;;;5064639;28;20454;-65
2023/12/11 11:36:19;;;;;;;9.65;1.70;;;10.70;99.90;;;;;;5064769;28;20044;-64
2023/12/11 11:38:57;;;;;;;7.68;3.05;;;10.70;99.90;;;;;;5067905;28;20052;-64
2023/12/11 11:41:30;;;;;;;6.22;1.50;;;10.80;99.90;;;;;;5069340;28;20048;-64
2023/12/11 11:44:07;;;;;;;6.85;1.92;;;10.70;99.90;;;;;;5069196;28;20040;-65
2023/12/11 11:46:51;;;;;;;7.50;1.95;;;10.80;99.90;;;;;;5069758;28;20102;-67
2023/12/11 11:49:31;;;;;;;16.80;2.17;;;10.80;99.90;;;;;;5068417;28;20098;-65
2023/12/11 11:51:59;;;;;;;11.95;2.13;;;10.90;99.90;;;;;;5067105;28;20689;-66
2023/12/11 11:54:26;;;;;;;12.20;1.50;;;10.80;99.90;;;;;;5069921;28;20127;-64
2023/12/11 11:56:53;;;;;;;7.80;1.60;;;10.90;99.90;;;;;;5055553;28;20067;-64
2023/12/11 11:59:20;;;;;;;10.07;1.50;;;10.90;99.90;;;;;;5067685;28;20700;-64
2023/12/11 12:01:50;;;;;;;8.88;1.42;;;10.90;99.90;;;;;;5053308;28;20044;-63
2023/12/11 12:04:34;;;;;;;14.85;2.20;;;10.90;99.90;;;;;;5061870;28;20044;-64
2023/12/11 12:07:02;;;;;;;14.25;1.98;;;10.90;99.90;;;;;;5067905;28;20045;-64
2023/12/11 12:09:32;;;;;;;8.30;1.33;;;10.90;99.90;;;;;;5057902;28;20128;-64
2023/12/11 12:11:59;;;;;;;9.85;1.73;;;10.90;99.90;;;;;;5058303;28;20091;-64
2023/12/11 12:14:26;;;;;;;10.40;1.70;;;10.90;99.90;;;;;;5056344;28;20458;-64
2023/12/11 12:16:54;;;;;;;9.70;1.88;;;10.90;99.90;;;;;;5080538;28;20563;-65
2023/12/11 12:19:34;;;;;;;10.10;1.83;;;10.90;99.90;;;;;;5082611;28;20045;-64
2023/12/11 12:22:04;;;;;;;13.57;2.60;;;10.90;99.90;;;;;;5064388;28;20052;-64
2023/12/11 12:24:31;;;;;;;12.98;1.55;;;10.90;99.90;;;;;;5067113;28;20045;-65
2023/12/11 12:27:01;;;;;;;11.20;1.80;;;10.90;99.90;;;;;;5049831;28;20059;-64
2023/12/11 12:29:29;;;;;;;8.70;1.63;;;10.90;99.90;;;;;;5063923;28;20059;-64
2023/12/11 12:31:57;;;;;;;6.75;1.50;;;10.80;99.90;;;;;;5051232;28;20084;-64
2023/12/11 12:34:24;;;;;;;13.10;2.65;;;10.90;99.90;;;;;;5052924;28;20734;-64
2023/12/11 12:36:53;;;;;;;4.43;1.40;;;10.80;99.90;;;;;;5045202;28;20265;-64
2023/12/11 12:39:20;;;;;;;8.18;2.35;;;10.80;99.90;;;;;;5048311;28;20044;-64
2023/12/11 12:41:50;;;;;;;13.05;2.00;;;10.90;99.90;;;;;;5080560;28;20102;-64
2023/12/11 12:44:20;;;;;;;13.15;1.90;;;11.00;99.90;;;;;;5070278;28;20506;-64
2023/12/11 12:46:47;;;;;;;6.85;1.83;;;11.00;99.90;;;;;;5068700;28;20048;-64